Terminal Aerodrome Forecast
Issued by NWS

Home | Current Version | Previous Version | Text Only | Print | Product List | Glossary Off
Versions: 1 2 3 4 5 6 7 8 9 10 11 12 13

000
FTUS44 KTSA 270520
TAFBVO
TAF
KBVO 270520Z 2706/2806 VRB02KT P6SM BKN250
     FM270800 00000KT 4SM BR BKN250
     FM271500 VRB03KT P6SM SCT035 BKN250
     FM272000 15005KT P6SM VCTS SCT050CB BKN100
     FM280100 VRB02KT P6SM BKN250=

USA.gov is the U.S. government's official web portal to all federal, state and local government web resources and services.